Airfield :
LOGIN :

Register | Disclaimer

   EN    FR    IT 

 










Legend :    VFR   Marginal VFR   IFR   Intensive IFR   Very Intensive IFR
Visi :
Ceiling :
>= 8 km
>= 3000ft
5 to 8 km
1000 to 3000 ft
1500m to 5 km
500 to 1000 ft
800 to 1500m
200 to 500 ft
< 800m
< 200 ft
Symbols :   Thunderstorms  Fog  Heavy snow  Heavy precipitations  Wind > 20 kt
SIGMETs :     Misc.  Thunderstorms  Icing  Turbulence  Mountain Waves  Volcanic Ashes






- Airport Elevation : 1989 ft
- IATA code : KLV


LKKV - Karlovy Vary

CURRENT METAR :
  • 062000Z 28004KT 6000 BKN004 M03/M03 Q1012

EXPIRED METARs :
  • 061900Z 28006KT 7000 NSC M02/M03 Q1012
  • 061830Z 29007KT CAVOK M02/M03 Q1012
  • 061800Z 30006KT 9999 FEW017 M02/M03 Q1012
  • 061746Z 30007KT 9999 SCT017 M02/M03 Q1012 RMK REG QNH 1010

TAF AMD TAF LKKV
Valid from the 06 at 20:00 until the 08 at 00:00 UTC


062015Z 0620/0800 25010KT 5000 BR BKN005
PROB30
TEMPO 0621/0700 3000 -FZRA BKN003
TEMPO 0622/0800 24012G28KT
TEMPO 0700/0709 1500 -RA BR OVC002
BECMG 0710/0712 BKN014
TEMPO 0712/0718 -SHRA BKN009
BECMG 0718/0721 BKN006
TEMPO 0721/0800 2000 BR BKN002



MET'MAP, your aeronautical weather chart ! - Copyright ORBIFLY December 2007 - Disclaimer

ORBIFLY MET'MAP TEAM :

Programming & Development : Alexandra Zaïnal
Concept & original design : Baudouin d'Aumeries
Assistance for programming : Marc-Olivier Méhu
Technical & hardware support : Manuel Goepfert

Contact : metmap@orbifly.com




SOURCES & CREDITS :

   NOAA